Meteo Giornale » Osservazioni meteo Italia » Bologna-Borgo Panigale

ore: 06:20 - Osservazioni Meteo Bologna-Borgo Panigale
Lat. 44° 32' N Lon. 11° 18' E Alt. 36 metri s.l.m.

sereno Europe/Rome

19 °C

Sereno

Temp. 24 Ore

19 °C

35 °C

Nord

5.5 Km/h

Dew point 17 °C

Umidità 88 %

Visibilità  10 Km

Il sole sorge alle ore 05:55

Il sole tramonta alle ore 20:46

Data e Ora Cielo e Fenomeni T °C DP °C Um. % Pres. hPa Vis. km Vento km/h
Oggi h: 06:20 sereno Sereno 19 17 88 1014 10 N 5.5
Oggi h: 05:50 sereno Sereno 19 18 93 1014 10 O/NO 7.4
Oggi h: 05:20 sereno Sereno 19 18 93 1014 10 O 9.3
Oggi h: 04:50 sereno Sereno 19 18 93 1014 10 O/SO 7.4
Oggi h: 04:20 sereno Sereno 19 18 93 1014 10 N 5.5
Oggi h: 03:50 sereno Sereno 19 18 93 1014 10 N 5.5
Oggi h: 03:20 sereno Sereno 19 18 93 1014 10 N 1.8
Oggi h: 02:50 sereno Sereno 20 18 88 1014 10 N 1.8
Oggi h: 02:20 sereno Sereno 20 18 88 1014 10 N 5.5
Oggi h: 01:50 sereno Sereno 21 18 82 1014 10 SO 7.4
Oggi h: 01:20 sereno Sereno 21 18 82 1014 10 N 5.5
Oggi h: 00:50 sereno Sereno 22 18 78 1014 10 N/NE 7.4
Oggi h: 00:20 sereno Sereno 22 18 78 1014 10 N 7.4
Ieri h: 23:50 sereno Sereno 23 18 73 1015 10 E/NE 9.3
Ieri h: 23:20 sereno Sereno 22 17 73 1015 10 E 9.3
Ieri h: 22:50 sereno Sereno 22 17 73 1015 10 E/NE 11.1
Ieri h: 22:20 sereno Sereno 22 17 73 1015 10 NE 7.4
Ieri h: 21:50 sereno Sereno 23 18 73 1015 10 NE 9.3
Ieri h: 20:50 sereno Sereno 23 18 73 1015 10 E/NE 7.4
Ieri h: 20:20 sereno Sereno 24 18 69 1014 10 N/NE 11.1
Ieri h: 19:50 sereno Sereno 25 18 65 1014 10 N 14.8
Ieri h: 19:20 sereno Sereno 28 19 58 1014 10 N 11.1
Ieri h: 18:50 sereno Sereno 28 19 58 1013 10 N 16.7
Ieri h: 18:20 poco_nuvoloso Poco Nuvoloso 31 19 48 1013 10 O/NO 18.5
Ieri h: 17:50 nuvoloso Nuvoloso 33 15 33 1013 10 SO 27.8
Ieri h: 17:20 nuvoloso Nuvoloso 33 15 33 1013 10 O/SO 25.9
Ieri h: 16:50 nuvoloso Nuvoloso 34 15 32 1013 10 S/SO 24
Ieri h: 16:20 sereno Sereno 34 15 32 1013 10 S/SO 20.3
Ieri h: 15:50 sereno Sereno 34 15 32 1013 10 S 20.3
Ieri h: 15:20 sereno Sereno 35 15 30 1013 10 S 18.5
Ieri h: 14:50 sereno Sereno 35 16 32 1013 10 S 20.3
Ieri h: 14:20 sereno Sereno 32 17 40 1014 10 E 22.2
Ieri h: 13:50 sereno Sereno 31 18 45 1014 10 E/NE 22.2
Ieri h: 13:20 sereno Sereno 30 18 48 1015 10 E/NE 16.7
Ieri h: 12:50 sereno Sereno 29 20 58 1015 10 E 18.5
Ieri h: 12:20 sereno Sereno 29 21 62 1015 10 E/NE 16.7
Ieri h: 11:50 sereno Sereno 27 22 74 1015 10 NE 13
Ieri h: 11:20 sereno Sereno 26 23 83 1015 8 NE 11.1
Ieri h: 10:50 sereno Sereno 26 22 78 1015 8 E/NE 9.3
Ieri h: 10:20 sereno Sereno 26 23 83 1015 8 E/NE 9.3
Ieri h: 09:50 poco_nuvoloso Poco Nuvoloso 26 23 83 1015 8 N 5.5
Ieri h: 09:20 nuvoloso Nuvoloso 24 22 88 1015 8 N 5.5
Ieri h: 08:50 nuvoloso Nuvoloso 24 22 88 1015 7 N 5.5
Ieri h: 08:20 nuvoloso Nuvoloso 23 22 94 1015 6 N 3.7
Ieri h: 07:50 nuvoloso Nuvoloso 22 21 94 1015 6 N 5.5
Ieri h: 07:20 nuvoloso Nuvoloso 22 21 94 1015 6 N 5.5